CheckWX is a tool to help pilots better visualize weather data.  It is not intended as a substitute for an official pre-flight weather briefing.

10:39:13 UTC

KSLE METAR
McNary Field Airport
Salem, Oregon, USA
Current

43 mins ago

KSLE 220956Z AUTO 00000KT 10SM CLR 13/12 A2993 RMK AO2 SLP136 T01280117
Observed
Sep-22 @ 09:56 UTC
Visibility
10 SM
Flight Rules
VFR
Cloud Levels
  • Clear skies
Temperature
13°C / 55°F
Dewpoint
12°C / 54°F
Humidity
94%
Altimeter
29.93" Hg
Pressure
1013.52 hPa
Previous

2 hours ago

KSLE 220856Z AUTO 00000KT 10SM CLR 13/12 A2994 RMK AO2 SLP137 T01330117 56015
Observed
Sep-22 @ 08:56 UTC
Visibility
10 SM
Flight Rules
VFR
Cloud Levels
  • Clear skies
Temperature
13°C / 55°F
Dewpoint
12°C / 54°F
Humidity
94%
Altimeter
29.94" Hg
Pressure
1013.92 hPa
Previous

3 hours ago

KSLE 220756Z AUTO 21003KT 10SM CLR 13/12 A2995 RMK AO2 SLP141 T01330117 402220111
Observed
Sep-22 @ 07:56 UTC
Wind
  • 210° at 3 KTS
Visibility
10 SM
Flight Rules
VFR
Cloud Levels
  • Clear skies
Temperature
13°C / 55°F
Dewpoint
12°C / 54°F
Humidity
94%
Altimeter
29.95" Hg
Pressure
1014.22 hPa